Time;durP1;ratioP1;P1;durP2;ratioP2;P2;SDS_P1;SDS_P2;PMS_P1;PMS_P2;Temp;Humidity;BMP_temperature;BMP_pressure;BME280_temperature;BME280_humidity;BME280_pressure;Samples;Min_cycle;Max_cycle;Signal;HPM_P1;HPM_P2
2022/04/12 00:02:13;;;;;;;;;;;;;;;12.95;93.06;98635.16;5068579;28;19961;-48
2022/04/12 00:04:38;;;;;;;;;;;;;;;13.02;91.16;98624.50;5071848;28;20577;-46
2022/04/12 00:07:03;;;;;;;;;;;;;;;12.89;90.93;98625.09;5071755;28;19916;-46
2022/04/12 00:09:29;;;;;;;;;;;;;;;12.48;94.46;98630.44;5070706;28;19923;-46
2022/04/12 00:11:54;;;;;;;;;;;;;;;12.48;94.33;98625.28;5070272;28;20029;-46
2022/04/12 00:14:19;;;;;;;;;;;;;;;12.45;96.73;98617.69;5068817;28;19924;-44
2022/04/12 00:16:44;;;;;;;;;;;;;;;12.51;96.93;98609.63;5070629;28;19924;-45
2022/04/12 00:19:12;;;;;;;;;;;;;;;12.36;94.41;98605.16;5068846;28;19927;-44
2022/04/12 00:21:39;;;;;;;;;;;;;;;12.25;96.75;98607.44;5069306;28;19912;-45
2022/04/12 00:24:05;;;;;;;;;;;;;;;12.25;96.91;98607.44;5066503;28;19924;-43
2022/04/12 00:26:30;;;;;;;;;;;;;;;11.78;100.00;98608.56;5069329;28;19943;-45
2022/04/12 00:28:55;;;;;;;;;;;;;;;12.49;97.99;98592.53;5072248;28;19927;-45
2022/04/12 00:31:21;;;;;;;;;;;;;;;12.40;96.77;98600.72;5068841;28;20443;-45
2022/04/12 00:33:46;;;;;;;;;;;;;;;12.17;97.26;98588.84;5068370;28;19947;-44
2022/04/12 00:36:11;;;;;;;;;;;;;;;12.24;97.79;98598.81;5068761;28;20420;-45
2022/04/12 00:38:38;;;;;;;;;;;;;;;12.05;98.98;98591.06;5068994;28;20987;-44
2022/04/12 00:41:04;;;;;;;;;;;;;;;12.39;97.96;98589.56;5070263;28;20261;-45
2022/04/12 00:43:31;;;;;;;;;;;;;;;12.48;98.22;98583.13;5068034;28;19935;-45
2022/04/12 00:46:00;;;;;;;;;;;;;;;12.45;96.70;98578.94;5067703;28;19917;-45
2022/04/12 00:48:26;;;;;;;;;;;;;;;11.94;97.67;98577.81;5068759;28;20082;-45
2022/04/12 00:50:51;;;;;;;;;;;;;;;12.42;97.23;98567.91;5067916;28;19919;-46
2022/04/12 00:53:16;;;;;;;;;;;;;;;12.33;97.13;98569.16;5068915;28;19999;-45
2022/04/12 00:55:41;;;;;;;;;;;;;;;12.27;98.38;98574.59;5069926;28;20380;-46
2022/04/12 00:58:07;;;;;;;;;;;;;;;12.20;98.50;98574.06;5069468;28;20288;-47
2022/04/12 01:00:33;;;;;;;;;;;;;;;12.15;97.84;98573.44;5067960;28;19989;-45
2022/04/12 01:02:59;;;;;;;;;;;;;;;12.63;95.57;98561.72;5066757;28;20369;-44
2022/04/12 01:05:24;;;;;;;;;;;;;;;12.36;95.54;98566.44;5064928;28;19968;-45
2022/04/12 01:07:49;;;;;;;;;;;;;;;12.24;96.92;98574.75;5070213;28;19916;-45
2022/04/12 01:10:15;;;;;;;;;;;;;;;12.55;92.71;98550.94;5066975;28;19920;-45
2022/04/12 01:12:41;;;;;;;;;;;;;;;12.44;95.30;98554.03;5068083;28;19993;-45
2022/04/12 01:15:10;;;;;;;;;;;;;;;12.27;95.45;98565.13;5066776;28;19920;-48
2022/04/12 01:17:35;;;;;;;;;;;;;;;12.51;95.27;98557.97;5067027;28;20016;-46
2022/04/12 01:20:00;;;;;;;;;;;;;;;12.43;94.11;98548.91;5069991;28;20031;-47
2022/04/12 01:22:26;;;;;;;;;;;;;;;12.54;94.10;98542.38;5064080;28;19920;-49
2022/04/12 01:24:51;;;;;;;;;;;;;;;12.22;95.45;98550.75;5049362;28;19921;-46
2022/04/12 01:27:16;;;;;;;;;;;;;;;12.47;95.12;98550.44;5069472;28;20332;-45
2022/04/12 01:29:41;;;;;;;;;;;;;;;12.21;95.05;98551.66;5068070;28;19985;-45
2022/04/12 01:32:07;;;;;;;;;;;;;;;12.40;94.49;98560.22;5068072;28;19927;-45
2022/04/12 01:34:33;;;;;;;;;;;;;;;12.33;95.56;98554.50;5064279;28;19924;-45
2022/04/12 01:36:58;;;;;;;;;;;;;;;12.26;93.32;98554.88;5067291;28;20624;-45
2022/04/12 01:39:23;;;;;;;;;;;;;;;12.18;93.54;98544.91;5068216;28;19959;-47
2022/04/12 01:41:48;;;;;;;;;;;;;;;12.39;94.37;98543.06;5066824;28;19920;-47
2022/04/12 01:44:14;;;;;;;;;;;;;;;12.14;94.38;98548.53;5063715;28;20288;-46
2022/04/12 01:46:39;;;;;;;;;;;;;;;12.21;92.94;98543.94;5067436;28;19946;-44
2022/04/12 01:49:04;;;;;;;;;;;;;;;12.30;91.64;98538.34;5069301;28;20629;-45
2022/04/12 01:51:29;;;;;;;;;;;;;;;12.51;92.52;98549.41;5064358;28;19978;-45
2022/04/12 01:53:55;;;;;;;;;;;;;;;12.22;90.99;98546.41;5067112;28;19927;-45
2022/04/12 01:56:20;;;;;;;;;;;;;;;12.55;91.67;98538.84;5049164;28;19943;-45
2022/04/12 01:58:45;;;;;;;;;;;;;;;12.27;92.96;98536.75;5065771;28;20265;-44
2022/04/12 02:01:10;;;;;;;;;;;;;;;12.51;90.75;98531.31;5065809;28;19916;-46
2022/04/12 02:03:36;;;;;;;;;;;;;;;12.14;92.39;98528.72;5063829;28;19920;-44
2022/04/12 02:06:01;;;;;;;;;;;;;;;12.54;91.85;98532.03;5068064;28;19951;-44
2022/04/12 02:08:26;;;;;;;;;;;;;;;12.30;91.00;98528.00;5070759;28;19916;-45
2022/04/12 02:10:51;;;;;;;;;;;;;;;12.33;91.77;98522.69;5071526;28;19919;-45
2022/04/12 02:13:16;;;;;;;;;;;;;;;12.53;90.86;98517.41;5065248;28;19931;-45
2022/04/12 02:15:42;;;;;;;;;;;;;;;12.47;91.60;98520.28;5066909;28;20004;-45
2022/04/12 02:18:08;;;;;;;;;;;;;;;12.46;92.37;98521.22;5068484;28;19932;-44
2022/04/12 02:20:33;;;;;;;;;;;;;;;12.37;91.87;98513.91;5069395;28;19947;-44
2022/04/12 02:22:58;;;;;;;;;;;;;;;12.59;91.69;98520.63;5069727;28;19950;-46
2022/04/12 02:25:23;;;;;;;;;;;;;;;12.66;90.53;98514.28;5069026;28;19946;-46
2022/04/12 02:27:49;;;;;;;;;;;;;;;12.47;91.23;98515.13;5066974;28;19942;-45
2022/04/12 02:30:14;;;;;;;;;;;;;;;12.58;91.42;98516.38;5067568;28;19975;-44
2022/04/12 02:32:39;;;;;;;;;;;;;;;12.69;91.14;98503.78;5068782;28;19944;-47
2022/04/12 02:35:05;;;;;;;;;;;;;;;12.38;92.30;98512.97;5070525;28;19917;-45
2022/04/12 02:37:30;;;;;;;;;;;;;;;12.54;92.02;98511.38;5064961;28;19921;-47
2022/04/12 02:39:55;;;;;;;;;;;;;;;12.80;90.29;98505.84;5068028;28;19931;-44
2022/04/12 02:42:21;;;;;;;;;;;;;;;12.48;90.54;98521.16;5070356;28;19920;-44
2022/04/12 02:44:46;;;;;;;;;;;;;;;12.53;92.50;98524.34;5070187;28;20011;-45
2022/04/12 02:47:11;;;;;;;;;;;;;;;12.51;92.25;98521.00;5070615;28;20394;-45
2022/04/12 02:49:36;;;;;;;;;;;;;;;12.34;91.81;98525.22;5071491;28;19920;-46
2022/04/12 02:52:02;;;;;;;;;;;;;;;12.58;92.16;98527.53;5072684;28;20305;-44
2022/04/12 02:54:27;;;;;;;;;;;;;;;12.47;93.63;98528.03;5068749;28;20061;-46
2022/04/12 02:56:52;;;;;;;;;;;;;;;12.42;91.70;98522.25;5074378;28;19928;-47
2022/04/12 02:59:17;;;;;;;;;;;;;;;12.24;90.90;98520.53;5067737;28;19920;-44
2022/04/12 03:01:43;;;;;;;;;;;;;;;12.24;91.03;98505.88;5069796;28;20361;-45
2022/04/12 03:04:08;;;;;;;;;;;;;;;12.48;91.52;98511.66;5071951;28;20369;-48
2022/04/12 03:06:33;;;;;;;;;;;;;;;12.33;91.51;98502.03;5068114;28;20354;-45
2022/04/12 03:08:59;;;;;;;;;;;;;;;12.30;93.33;98513.34;5070190;28;19920;-45
2022/04/12 03:11:24;;;;;;;;;;;;;;;12.24;91.97;98508.47;5070008;28;20394;-44
2022/04/12 03:13:49;;;;;;;;;;;;;;;12.19;93.20;98507.03;5070428;28;19956;-45
2022/04/12 03:16:15;;;;;;;;;;;;;;;12.48;93.26;98514.22;5074706;28;20525;-46
2022/04/12 03:18:40;;;;;;;;;;;;;;;12.11;93.98;98523.69;5071137;28;19920;-44
2022/04/12 03:21:05;;;;;;;;;;;;;;;12.42;92.04;98514.50;5071195;28;19982;-46
2022/04/12 03:23:30;;;;;;;;;;;;;;;12.50;91.70;98516.75;5070142;28;19966;-46
2022/04/12 03:25:56;;;;;;;;;;;;;;;12.71;91.68;98513.13;5072682;28;20744;-45
2022/04/12 03:28:21;;;;;;;;;;;;;;;12.55;91.36;98513.03;5067967;28;20015;-46
2022/04/12 03:30:46;;;;;;;;;;;;;;;12.54;91.43;98516.53;5071172;28;20031;-45
2022/04/12 03:33:11;;;;;;;;;;;;;;;12.62;91.07;98512.75;5069730;28;19977;-45
2022/04/12 03:35:36;;;;;;;;;;;;;;;12.83;90.66;98511.69;5070929;28;19960;-44
2022/04/12 03:38:02;;;;;;;;;;;;;;;12.63;93.33;98516.97;5067876;28;19968;-46
2022/04/12 03:40:30;;;;;;;;;;;;;;;12.59;92.69;98513.72;5070255;28;19962;-46
2022/04/12 03:42:56;;;;;;;;;;;;;;;12.60;91.95;98509.38;5069412;28;21194;-45
2022/04/12 03:45:21;;;;;;;;;;;;;;;12.38;92.96;98506.97;5073320;28;19920;-45
2022/04/12 03:47:47;;;;;;;;;;;;;;;12.40;94.01;98503.41;5071811;28;19917;-45
2022/04/12 03:50:12;;;;;;;;;;;;;;;11.94;93.85;98500.41;5069903;28;19925;-46
2022/04/12 03:52:37;;;;;;;;;;;;;;;12.13;95.05;98498.66;5069390;28;19921;-46
2022/04/12 03:55:04;;;;;;;;;;;;;;;12.28;93.23;98498.84;5072656;28;19935;-45
2022/04/12 03:57:30;;;;;;;;;;;;;;;12.43;93.20;98486.94;5069102;28;19932;-45
2022/04/12 03:59:56;;;;;;;;;;;;;;;12.70;92.11;98484.75;5070623;28;20610;-48
2022/04/12 04:02:21;;;;;;;;;;;;;;;12.44;93.33;98479.13;5070010;28;19916;-46
2022/04/12 04:04:46;;;;;;;;;;;;;;;12.20;94.67;98482.88;5070355;28;19920;-45
2022/04/12 04:07:11;;;;;;;;;;;;;;;11.97;95.71;98479.59;5068325;28;20565;-45
2022/04/12 04:09:36;;;;;;;;;;;;;;;12.21;94.01;98476.81;5070238;28;20551;-45
2022/04/12 04:12:03;;;;;;;;;;;;;;;12.56;92.63;98472.53;5071357;28;20432;-45
2022/04/12 04:14:31;;;;;;;;;;;;;;;12.29;90.95;98470.38;5072810;28;19923;-45
2022/04/12 04:16:57;;;;;;;;;;;;;;;12.65;89.65;98461.75;5071269;28;19927;-45
2022/04/12 04:19:22;;;;;;;;;;;;;;;12.61;92.09;98464.56;5068852;28;19920;-46
2022/04/12 04:21:47;;;;;;;;;;;;;;;12.62;90.35;98455.91;5065815;28;19923;-45
2022/04/12 04:24:13;;;;;;;;;;;;;;;12.51;91.75;98464.16;5066015;28;19931;-44
2022/04/12 04:26:39;;;;;;;;;;;;;;;12.29;92.50;98469.53;5070031;28;19924;-46
2022/04/12 04:29:05;;;;;;;;;;;;;;;12.45;92.63;98454.13;5068782;28;19920;-46
2022/04/12 04:31:30;;;;;;;;;;;;;;;12.25;93.35;98457.69;5066382;28;19923;-45
2022/04/12 04:33:56;;;;;;;;;;;;;;;12.67;90.83;98457.34;5068922;28;19920;-44
2022/04/12 04:36:21;;;;;;;;;;;;;;;12.51;89.98;98462.41;5068423;28;19959;-46
2022/04/12 04:38:46;;;;;;;;;;;;;;;12.31;90.83;98462.53;5069427;28;19946;-46
2022/04/12 04:41:11;;;;;;;;;;;;;;;12.39;90.27;98470.78;5069745;28;19943;-45
2022/04/12 04:43:37;;;;;;;;;;;;;;;12.72;90.33;98462.28;5069827;28;19974;-47
2022/04/12 04:46:03;;;;;;;;;;;;;;;12.82;90.39;98468.69;5069424;28;19955;-45
2022/04/12 04:48:28;;;;;;;;;;;;;;;12.73;89.87;98469.97;5067080;28;20307;-46
2022/04/12 04:50:53;;;;;;;;;;;;;;;12.58;90.30;98469.88;5069799;28;19916;-45
2022/04/12 04:53:18;;;;;;;;;;;;;;;12.43;90.95;98474.88;5065507;28;19930;-46
2022/04/12 04:55:44;;;;;;;;;;;;;;;12.39;91.68;98475.94;5070530;28;19931;-45
2022/04/12 04:58:09;;;;;;;;;;;;;;;12.50;90.73;98468.50;5068379;28;19925;-45
2022/04/12 05:00:34;;;;;;;;;;;;;;;12.63;91.88;98467.91;5064890;28;20078;-47
2022/04/12 05:03:00;;;;;;;;;;;;;;;12.37;92.38;98475.16;5070187;28;20524;-45
2022/04/12 05:05:26;;;;;;;;;;;;;;;12.48;92.25;98485.81;5068141;28;19927;-46
2022/04/12 05:07:52;;;;;;;;;;;;;;;12.38;91.84;98492.31;5068403;28;20292;-45
2022/04/12 05:10:18;;;;;;;;;;;;;;;12.67;92.50;98490.09;5070377;28;19930;-45
2022/04/12 05:12:43;;;;;;;;;;;;;;;12.81;91.86;98487.66;5069952;28;19916;-44
2022/04/12 05:15:09;;;;;;;;;;;;;;;12.66;90.58;98488.44;5070623;28;19927;-45
2022/04/12 05:17:34;;;;;;;;;;;;;;;13.04;91.98;98494.28;5068672;28;20004;-46
2022/04/12 05:20:00;;;;;;;;;;;;;;;12.45;92.68;98498.91;5069090;28;19920;-45
2022/04/12 05:22:25;;;;;;;;;;;;;;;12.68;93.60;98499.50;5070198;28;19955;-45
2022/04/12 05:24:50;;;;;;;;;;;;;;;12.78;91.64;98498.16;5069384;28;19916;-46
2022/04/12 05:27:16;;;;;;;;;;;;;;;12.72;93.37;98498.44;5071308;28;20385;-45
2022/04/12 05:29:41;;;;;;;;;;;;;;;12.84;93.98;98497.88;5069041;28;19920;-48
2022/04/12 05:32:09;;;;;;;;;;;;;;;13.30;92.78;98499.94;5067670;28;19920;-45
2022/04/12 05:34:34;;;;;;;;;;;;;;;13.19;91.41;98514.19;5067192;28;20011;-46
2022/04/12 05:36:59;;;;;;;;;;;;;;;13.50;89.76;98514.41;5069962;28;19977;-45
2022/04/12 05:39:25;;;;;;;;;;;;;;;13.32;89.53;98519.63;5068475;28;19916;-44
2022/04/12 05:41:50;;;;;;;;;;;;;;;13.80;89.13;98512.81;5068547;28;19921;-45
2022/04/12 05:44:15;;;;;;;;;;;;;;;13.79;89.38;98508.53;5066164;28;20040;-45
2022/04/12 05:46:40;;;;;;;;;;;;;;;13.30;89.83;98521.44;5068997;28;19986;-46
2022/04/12 05:49:06;;;;;;;;;;;;;;;13.74;89.63;98510.53;5065385;28;19916;-48
2022/04/12 05:51:31;;;;;;;;;;;;;;;13.79;86.95;98499.94;5069282;28;19923;-46
2022/04/12 05:53:56;;;;;;;;;;;;;;;13.88;87.13;98511.56;5070384;28;20280;-45
2022/04/12 05:56:21;;;;;;;;;;;;;;;13.68;88.17;98516.03;5068107;28;20396;-46
2022/04/12 05:58:47;;;;;;;;;;;;;;;13.43;87.64;98513.03;5065351;28;19920;-46
2022/04/12 06:01:12;;;;;;;;;;;;;;;13.34;88.06;98517.78;5071059;28;20665;-45
2022/04/12 06:03:37;;;;;;;;;;;;;;;13.45;89.49;98524.97;5069763;28;19920;-46
2022/04/12 06:06:02;;;;;;;;;;;;;;;13.65;88.91;98528.31;5067259;28;19920;-45
2022/04/12 06:08:28;;;;;;;;;;;;;;;13.20;89.64;98520.19;5070541;28;21119;-45
2022/04/12 06:10:53;;;;;;;;;;;;;;;13.50;89.38;98528.19;5068408;28;20337;-45
2022/04/12 06:13:18;;;;;;;;;;;;;;;13.26;91.98;98529.41;5069338;28;19943;-46
2022/04/12 06:15:44;;;;;;;;;;;;;;;13.24;90.63;98526.88;5071758;28;19999;-45
2022/04/12 06:18:10;;;;;;;;;;;;;;;13.55;88.44;98527.94;5072294;28;19983;-45
2022/04/12 06:20:35;;;;;;;;;;;;;;;13.26;90.10;98530.22;5069806;28;19927;-45
2022/04/12 06:23:01;;;;;;;;;;;;;;;13.39;91.50;98536.50;5073291;28;19916;-44
2022/04/12 06:25:26;;;;;;;;;;;;;;;13.36;92.18;98536.66;5071731;28;20316;-47
2022/04/12 06:27:51;;;;;;;;;;;;;;;13.42;92.16;98535.50;5071140;28;19962;-49
2022/04/12 06:30:21;;;;;;;;;;;;;;;13.79;90.24;98524.06;5068334;28;19956;-49
2022/04/12 06:32:46;;;;;;;;;;;;;;;13.61;88.10;98525.03;5071889;28;19916;-46
2022/04/12 06:35:12;;;;;;;;;;;;;;;13.86;89.20;98523.75;5071585;28;19943;-48
2022/04/12 06:37:37;;;;;;;;;;;;;;;14.02;88.57;98525.41;5068784;28;19978;-45
2022/04/12 06:40:03;;;;;;;;;;;;;;;13.99;90.75;98532.53;5069386;28;19958;-46
2022/04/12 06:42:29;;;;;;;;;;;;;;;14.37;87.59;98529.63;5068036;28;20445;-51
2022/04/12 06:44:54;;;;;;;;;;;;;;;14.25;89.04;98530.28;5070120;28;19936;-49
2022/04/12 06:47:19;;;;;;;;;;;;;;;14.38;89.11;98537.31;5071212;28;19958;-47
2022/04/12 06:49:47;;;;;;;;;;;;;;;14.70;88.09;98541.66;5069235;28;19939;-47
2022/04/12 06:52:13;;;;;;;;;;;;;;;15.33;87.02;98536.28;5067742;28;19917;-49
2022/04/12 06:54:38;;;;;;;;;;;;;;;15.09;85.12;98537.72;5069141;28;19927;-45
2022/04/12 06:57:03;;;;;;;;;;;;;;;15.38;81.26;98528.22;5070943;28;19928;-46
2022/04/12 06:59:29;;;;;;;;;;;;;;;14.94;81.61;98534.22;5069483;28;19917;-48
2022/04/12 07:01:54;;;;;;;;;;;;;;;15.53;78.89;98529.06;5070067;28;20266;-50
2022/04/12 07:04:21;;;;;;;;;;;;;;;15.18;79.67;98537.19;5074577;28;19927;-48
2022/04/12 07:06:46;;;;;;;;;;;;;;;15.62;75.16;98531.97;5073996;28;19916;-46
2022/04/12 07:09:17;;;;;;;;;;;;;;;15.51;75.47;98536.09;5071430;28;19995;-45
2022/04/12 07:11:42;;;;;;;;;;;;;;;15.34;74.36;98537.94;5070023;28;19927;-44
2022/04/12 07:14:07;;;;;;;;;;;;;;;15.46;72.48;98526.00;5071752;28;19916;-44
2022/04/12 07:16:32;;;;;;;;;;;;;;;15.60;73.45;98538.16;5070714;28;19920;-46
2022/04/12 07:18:58;;;;;;;;;;;;;;;15.47;73.67;98535.47;5068908;28;19965;-45
2022/04/12 07:21:23;;;;;;;;;;;;;;;15.59;69.21;98533.91;5069176;28;20015;-46
2022/04/12 07:23:50;;;;;;;;;;;;;;;16.67;68.43;98530.66;5071098;28;20015;-47
2022/04/12 07:26:16;;;;;;;;;;;;;;;15.80;68.57;98540.41;5067454;28;20007;-46
2022/04/12 07:28:41;;;;;;;;;;;;;;;16.37;67.64;98536.06;5068990;28;19922;-45
2022/04/12 07:31:06;;;;;;;;;;;;;;;15.85;65.38;98533.19;5069580;28;20015;-46
2022/04/12 07:33:31;;;;;;;;;;;;;;;16.60;66.88;98535.44;5070114;28;20019;-45
2022/04/12 07:35:57;;;;;;;;;;;;;;;16.34;66.76;98528.47;5069071;28;19916;-45
2022/04/12 07:38:22;;;;;;;;;;;;;;;16.31;65.71;98526.91;5068691;28;19928;-45
2022/04/12 07:40:47;;;;;;;;;;;;;;;16.82;64.38;98523.69;5071540;28;19920;-44
2022/04/12 07:43:12;;;;;;;;;;;;;;;17.10;64.85;98525.28;5069919;28;19920;-47
2022/04/12 07:45:38;;;;;;;;;;;;;;;17.01;62.61;98511.13;5070356;28;19923;-46
2022/04/12 07:48:03;;;;;;;;;;;;;;;17.45;61.89;98506.50;5068298;28;19916;-45
2022/04/12 07:50:28;;;;;;;;;;;;;;;16.94;61.96;98502.06;5073089;28;19920;-46
2022/04/12 07:52:53;;;;;;;;;;;;;;;16.44;62.75;98506.16;5069417;28;19916;-44
2022/04/12 07:55:19;;;;;;;;;;;;;;;16.77;62.32;98500.56;5070312;28;19919;-46
2022/04/12 07:57:44;;;;;;;;;;;;;;;17.02;60.70;98505.00;5067820;28;19953;-46
2022/04/12 08:00:10;;;;;;;;;;;;;;;17.84;60.32;98496.91;5068125;28;19919;-48
2022/04/12 08:02:35;;;;;;;;;;;;;;;17.58;60.99;98490.84;5071273;28;20007;-48
2022/04/12 08:05:00;;;;;;;;;;;;;;;18.45;58.92;98483.84;5071088;28;20003;-48
2022/04/12 08:07:26;;;;;;;;;;;;;;;18.30;58.61;98484.03;5071436;28;19962;-46
2022/04/12 08:09:51;;;;;;;;;;;;;;;17.62;58.25;98484.50;5068673;28;19919;-46
2022/04/12 08:12:16;;;;;;;;;;;;;;;19.06;57.04;98497.63;5067539;28;19978;-46
2022/04/12 08:14:41;;;;;;;;;;;;;;;18.69;56.30;98491.69;5068240;28;19924;-49
2022/04/12 08:17:07;;;;;;;;;;;;;;;19.36;56.43;98499.72;5065611;28;20070;-44
2022/04/12 08:19:32;;;;;;;;;;;;;;;18.73;54.14;98495.72;5068294;28;20029;-46
2022/04/12 08:21:59;;;;;;;;;;;;;;;19.14;55.36;98502.28;5065790;28;20292;-46
2022/04/12 08:24:24;;;;;;;;;;;;;;;19.35;54.09;98497.22;5070978;28;20395;-48
2022/04/12 08:26:49;;;;;;;;;;;;;;;19.33;53.93;98504.34;5066630;28;19916;-46
2022/04/12 08:29:15;;;;;;;;;;;;;;;19.23;52.47;98507.66;5068211;28;20538;-46
2022/04/12 08:31:41;;;;;;;;;;;;;;;19.12;53.26;98512.84;5065965;28;20304;-48
2022/04/12 08:34:06;;;;;;;;;;;;;;;19.06;52.98;98495.03;5066792;28;19920;-48
2022/04/12 08:36:31;;;;;;;;;;;;;;;19.05;52.31;98498.59;5064858;28;19950;-46
2022/04/12 08:38:56;;;;;;;;;;;;;;;19.83;51.16;98504.88;5066960;28;21165;-47
2022/04/12 08:41:23;;;;;;;;;;;;;;;19.97;51.85;98496.75;5070173;28;20331;-46
2022/04/12 08:43:52;;;;;;;;;;;;;;;19.89;51.61;98501.78;5068241;28;19951;-47
2022/04/12 08:46:18;;;;;;;;;;;;;;;19.31;50.43;98499.22;5066151;28;19916;-48
2022/04/12 08:48:43;;;;;;;;;;;;;;;19.08;50.98;98506.19;5069324;28;20280;-47
2022/04/12 08:51:09;;;;;;;;;;;;;;;19.39;51.20;98493.44;5065358;28;19924;-47
2022/04/12 08:53:34;;;;;;;;;;;;;;;19.49;52.11;98502.22;5065610;28;19931;-50
2022/04/12 08:55:59;;;;;;;;;;;;;;;19.79;47.53;98496.41;5065695;28;19927;-46
2022/04/12 08:58:25;;;;;;;;;;;;;;;20.95;48.01;98505.53;5067783;28;20377;-46
2022/04/12 09:00:50;;;;;;;;;;;;;;;21.34;47.85;98511.00;5072829;28;19916;-45
2022/04/12 09:03:16;;;;;;;;;;;;;;;22.49;46.45;98506.38;5066965;28;19973;-46
2022/04/12 09:05:41;;;;;;;;;;;;;;;21.60;45.62;98495.72;5067578;28;19916;-45
2022/04/12 09:08:29;;;;;;;;;;;;;;;20.88;47.26;98490.31;5068472;28;20833;-47
2022/04/12 09:10:58;;;;;;;;;;;;;;;20.90;47.92;98477.13;5070028;28;19917;-46
2022/04/12 09:13:24;;;;;;;;;;;;;;;21.35;49.28;98473.38;5069598;28;19936;-48
2022/04/12 09:15:50;;;;;;;;;;;;;;;21.09;49.74;98468.56;5066878;28;19916;-49
2022/04/12 09:18:15;;;;;;;;;;;;;;;21.14;48.59;98468.16;5067095;28;20740;-46
2022/04/12 09:20:43;;;;;;;;;;;;;;;21.36;49.81;98467.19;5068031;28;19916;-45
2022/04/12 09:23:15;;;;;;;;;;;;;;;21.57;45.86;98457.50;5065809;28;19919;-45
2022/04/12 09:25:54;;;;;;;;;;;;;;;22.10;47.51;98466.91;5067121;28;19924;-49
2022/04/12 09:28:19;;;;;;;;;;;;;;;23.66;44.55;98467.59;5062561;28;19923;-46
2022/04/12 09:30:44;;;;;;;;;;;;;;;22.54;46.04;98462.97;5065834;28;20582;-46
2022/04/12 09:33:10;;;;;;;;;;;;;;;22.02;49.28;98470.22;5062599;28;19927;-48
2022/04/12 09:35:35;;;;;;;;;;;;;;;21.92;48.29;98464.94;5065525;28;19916;-47
2022/04/12 09:38:00;;;;;;;;;;;;;;;21.21;48.14;98464.91;5063517;28;19935;-47
2022/04/12 09:40:25;;;;;;;;;;;;;;;22.64;47.92;98462.16;5065747;28;19920;-49
2022/04/12 09:42:50;;;;;;;;;;;;;;;22.44;48.03;98464.78;5066026;28;19961;-46
2022/04/12 09:45:20;;;;;;;;;;;;;;;23.41;45.53;98463.00;5066757;28;19948;-46
2022/04/12 09:47:46;;;;;;;;;;;;;;;22.53;47.58;98465.72;5065098;28;19954;-47
2022/04/12 09:50:11;;;;;;;;;;;;;;;22.04;47.92;98456.97;5065655;28;20550;-48
2022/04/12 09:52:37;;;;;;;;;;;;;;;23.10;48.53;98465.84;5065970;28;19924;-47
2022/04/12 09:55:03;;;;;;;;;;;;;;;22.50;47.20;98458.97;5069603;28;19942;-46
2022/04/12 09:57:28;;;;;;;;;;;;;;;22.05;49.08;98448.13;5065691;28;19982;-46
2022/04/12 09:59:56;;;;;;;;;;;;;;;22.59;47.21;98451.25;5063663;28;20217;-45
2022/04/12 10:02:25;;;;;;;;;;;;;;;23.11;46.13;98442.06;5067598;28;19974;-48
2022/04/12 10:04:50;;;;;;;;;;;;;;;22.81;46.90;98440.47;5069527;28;19920;-48
2022/04/12 10:07:16;;;;;;;;;;;;;;;22.54;44.05;98434.13;5068893;28;19974;-50
2022/04/12 10:09:41;;;;;;;;;;;;;;;23.62;44.44;98442.56;5062438;28;19921;-46
2022/04/12 10:12:06;;;;;;;;;;;;;;;23.43;42.03;98440.03;5066518;28;20381;-46
2022/04/12 10:14:32;;;;;;;;;;;;;;;23.49;42.53;98434.19;5066477;28;20335;-46
2022/04/12 10:16:57;;;;;;;;;;;;;;;25.29;42.82;98432.44;5064082;28;19924;-45
2022/04/12 10:19:22;;;;;;;;;;;;;;;24.56;42.67;98437.03;5066424;28;19922;-46
2022/04/12 10:21:48;;;;;;;;;;;;;;;23.88;40.25;98428.75;5066372;28;19943;-47
2022/04/12 10:24:13;;;;;;;;;;;;;;;23.92;42.65;98435.38;5069792;28;20281;-46
2022/04/12 10:26:38;;;;;;;;;;;;;;;24.76;41.58;98427.13;5066374;28;20424;-46
2022/04/12 10:29:05;;;;;;;;;;;;;;;23.89;42.21;98435.69;5067795;28;19916;-46
2022/04/12 10:31:31;;;;;;;;;;;;;;;23.64;42.32;98434.56;5068615;28;19925;-47
2022/04/12 10:34:02;;;;;;;;;;;;;;;23.10;43.74;98432.53;5069320;28;20357;-48
2022/04/12 10:36:46;;;;;;;;;;;;;;;23.04;44.37;98429.66;5068378;28;19924;-44
2022/04/12 10:39:12;;;;;;;;;;;;;;;22.97;41.88;98424.13;5064624;28;20019;-45
2022/04/12 10:41:38;;;;;;;;;;;;;;;22.73;41.86;98429.81;5064383;28;20258;-44
2022/04/12 10:44:04;;;;;;;;;;;;;;;24.63;40.89;98421.44;5067309;28;19994;-47
2022/04/12 10:46:46;;;;;;;;;;;;;;;23.50;42.41;98430.59;5068773;28;19916;-46
2022/04/12 10:49:11;;;;;;;;;;;;;;;23.61;42.50;98421.72;5069733;28;19971;-49
2022/04/12 10:51:38;;;;;;;;;;;;;;;23.85;45.57;98424.63;5065680;28;19924;-45
2022/04/12 10:54:03;;;;;;;;;;;;;;;22.38;44.58;98412.03;5061756;28;19931;-45
2022/04/12 10:56:29;;;;;;;;;;;;;;;23.36;44.21;98416.16;5058482;28;19920;-45
2022/04/12 10:58:54;;;;;;;;;;;;;;;22.88;45.19;98415.28;5060154;28;19920;-45
2022/04/12 11:01:28;;;;;;;;;;;;;;;23.07;46.34;98408.34;5068985;28;19932;-45
2022/04/12 11:03:54;;;;;;;;;;;;;;;23.59;43.48;98414.78;5063966;28;19924;-45
2022/04/12 11:06:22;;;;;;;;;;;;;;;23.73;44.14;98413.47;5069025;28;19927;-45
2022/04/12 11:08:49;;;;;;;;;;;;;;;23.87;41.75;98400.81;5066989;28;19920;-45
2022/04/12 11:11:17;;;;;;;;;;;;;;;24.03;45.25;98405.44;5068236;28;19924;-47
2022/04/12 11:13:44;;;;;;;;;;;;;;;23.83;45.99;98409.97;5069564;28;19924;-47
2022/04/12 11:16:11;;;;;;;;;;;;;;;24.30;42.88;98401.91;5069270;28;19921;-47
2022/04/12 11:18:56;;;;;;;;;;;;;;;25.46;42.22;98400.72;5069994;28;20392;-44
2022/04/12 11:21:25;;;;;;;;;;;;;;;23.90;42.38;98396.09;5069977;28;20616;-45
2022/04/12 11:24:00;;;;;;;;;;;;;;;23.88;43.34;98407.72;5071863;28;20373;-45
2022/04/12 11:26:27;;;;;;;;;;;;;;;23.89;43.97;98401.50;5071583;28;19916;-46
2022/04/12 11:28:54;;;;;;;;;;;;;;;24.13;42.83;98395.66;5074877;28;19919;-46
2022/04/12 11:31:19;;;;;;;;;;;;;;;24.79;41.48;98397.03;5070433;28;19916;-48
2022/04/12 11:33:44;;;;;;;;;;;;;;;24.26;40.69;98396.09;5068713;28;19939;-44
2022/04/12 11:36:10;;;;;;;;;;;;;;;24.19;42.69;98401.13;5071651;28;19919;-45
2022/04/12 11:38:35;;;;;;;;;;;;;;;24.49;41.81;98391.22;5069205;28;19922;-45
2022/04/12 11:41:01;;;;;;;;;;;;;;;24.48;40.29;98388.75;5070421;28;19912;-44
2022/04/12 11:43:27;;;;;;;;;;;;;;;24.81;42.49;98390.66;5064461;28;19958;-47
2022/04/12 11:45:53;;;;;;;;;;;;;;;25.40;41.68;98396.09;5068254;28;19939;-48
2022/04/12 11:48:19;;;;;;;;;;;;;;;25.11;42.36;98392.94;5052910;28;19916;-44
2022/04/12 11:50:51;;;;;;;;;;;;;;;25.18;40.63;98396.59;5070312;28;19916;-46
2022/04/12 11:53:16;;;;;;;;;;;;;;;24.93;39.54;98383.31;5068123;28;19924;-46
2022/04/12 11:55:44;;;;;;;;;;;;;;;25.62;39.55;98381.50;5072341;28;19924;-45
2022/04/12 11:58:09;;;;;;;;;;;;;;;25.53;41.44;98389.56;5067159;28;19924;-44
2022/04/12 12:00:35;;;;;;;;;;;;;;;25.37;42.44;98385.88;5071742;28;19939;-45
2022/04/12 12:03:00;;;;;;;;;;;;;;;25.23;40.29;98389.09;5071531;28;19969;-49
2022/04/12 12:05:25;;;;;;;;;;;;;;;26.37;39.53;98379.84;5071476;28;19916;-49
2022/04/12 12:07:50;;;;;;;;;;;;;;;26.39;39.72;98386.63;5069897;28;19919;-48
2022/04/12 12:10:15;;;;;;;;;;;;;;;27.69;37.06;98384.69;5070292;28;20001;-45
2022/04/12 12:12:41;;;;;;;;;;;;;;;26.62;39.39;98392.06;5072469;28;19916;-47
2022/04/12 12:15:18;;;;;;;;;;;;;;;25.78;39.67;98380.72;5072056;28;20273;-46
2022/04/12 12:17:45;;;;;;;;;;;;;;;26.77;38.74;98380.81;5071096;28;19928;-46
2022/04/12 12:20:10;;;;;;;;;;;;;;;26.75;38.74;98377.53;5068054;28;19992;-45
2022/04/12 12:22:39;;;;;;;;;;;;;;;26.02;41.70;98390.53;5070281;28;19931;-46
2022/04/12 12:25:04;;;;;;;;;;;;;;;26.18;36.54;98362.50;5070222;28;19961;-46
2022/04/12 12:27:37;;;;;;;;;;;;;;;26.76;38.59;98377.38;5071024;28;19916;-45
2022/04/12 12:30:09;;;;;;;;;;;;;;;27.38;37.28;98365.31;5068481;28;20017;-49
2022/04/12 12:32:35;;;;;;;;;;;;;;;26.49;38.71;98360.84;5070420;28;20550;-45
2022/04/12 12:35:02;;;;;;;;;;;;;;;25.15;38.77;98370.56;5069478;28;19927;-45
2022/04/12 12:37:27;;;;;;;;;;;;;;;25.80;40.24;98373.47;5070492;28;19970;-47
2022/04/12 12:39:52;;;;;;;;;;;;;;;26.76;38.64;98358.88;5068796;28;19967;-49
2022/04/12 12:42:17;;;;;;;;;;;;;;;28.13;38.84;98364.75;5068298;28;19952;-46